Time;durP1;ratioP1;P1;durP2;ratioP2;P2;SDS_P1;SDS_P2;PMS_P1;PMS_P2;Temp;Humidity;BMP_temperature;BMP_pressure;BME280_temperature;BME280_humidity;BME280_pressure;Samples;Min_cycle;Max_cycle;Signal;HPM_P1;HPM_P2
2021/06/18 00:01:30;;;;;;;;;12.50;12.50;;;;;;;;3726088;37;21166;-68
2021/06/18 00:03:56;;;;;;;;;16.25;16.00;;;;;;;;3724637;38;21173;-67
2021/06/18 00:06:22;;;;;;;;;15.25;15.25;;;;;;;;3725076;38;21172;-66
2021/06/18 00:08:50;;;;;;;;;13.75;13.75;;;;;;;;3725057;38;18337;-67
2021/06/18 00:11:16;;;;;;;;;14.00;14.00;;;;;;;;3724957;37;21136;-67
2021/06/18 00:13:42;;;;;;;;;15.50;14.75;;;;;;;;3725144;37;18299;-67
2021/06/18 00:16:09;;;;;;;;;16.75;16.75;;;;;;;;3724620;38;21127;-67
2021/06/18 00:18:36;;;;;;;;;12.50;12.50;;;;;;;;3724849;37;21150;-67
2021/06/18 00:21:03;;;;;;;;;16.00;16.00;;;;;;;;3724942;37;21135;-67
2021/06/18 00:23:28;;;;;;;;;10.50;10.50;;;;;;;;3725006;37;21130;-68
2021/06/18 00:25:55;;;;;;;;;15.25;15.25;;;;;;;;3724845;38;21113;-68
2021/06/18 00:28:21;;;;;;;;;13.50;13.50;;;;;;;;3724861;37;18294;-67
2021/06/18 00:30:47;;;;;;;;;15.75;15.00;;;;;;;;3724865;38;21133;-67
2021/06/18 00:33:13;;;;;;;;;13.25;13.25;;;;;;;;3724859;37;18270;-67
2021/06/18 00:35:39;;;;;;;;;12.50;12.00;;;;;;;;3724943;38;21125;-66
2021/06/18 00:38:05;;;;;;;;;13.75;13.75;;;;;;;;3724902;37;18296;-67
2021/06/18 00:40:31;;;;;;;;;14.75;14.25;;;;;;;;3724743;37;21099;-67
2021/06/18 00:43:01;;;;;;;;;13.25;13.25;;;;;;;;3724979;37;18280;-66
2021/06/18 00:45:27;;;;;;;;;16.50;16.50;;;;;;;;3724973;37;21093;-67
2021/06/18 00:48:00;;;;;;;;;16.00;15.00;;;;;;;;3725039;37;18285;-68
2021/06/18 00:50:27;;;;;;;;;16.25;15.25;;;;;;;;3724550;38;21105;-67
2021/06/18 00:52:53;;;;;;;;;14.00;14.00;;;;;;;;3724583;38;21103;-66
2021/06/18 00:55:19;;;;;;;;;13.75;13.75;;;;;;;;3725077;37;21316;-66
2021/06/18 00:57:45;;;;;;;;;14.00;13.75;;;;;;;;3724962;38;21177;-66
2021/06/18 01:00:13;;;;;;;;;13.50;13.00;;;;;;;;3725041;38;21087;-68
2021/06/18 01:02:43;;;;;;;;;15.75;15.25;;;;;;;;3724832;37;21009;-67
2021/06/18 01:05:12;;;;;;;;;12.50;12.50;;;;;;;;3725026;37;21023;-68
2021/06/18 01:07:56;;;;;;;;;15.25;15.25;;;;;;;;3724712;37;21079;-67
2021/06/18 01:10:35;;;;;;;;;13.75;13.75;;;;;;;;3725029;38;21019;-67
2021/06/18 01:13:10;;;;;;;;;14.00;13.25;;;;;;;;3725140;37;21080;-67
2021/06/18 01:15:51;;;;;;;;;14.50;14.50;;;;;;;;3725939;38;21057;-67
2021/06/18 01:18:20;;;;;;;;;15.25;13.50;;;;;;;;3730624;37;21054;-67
2021/06/18 01:21:04;;;;;;;;;15.00;15.00;;;;;;;;3730208;37;20911;-67
2021/06/18 01:23:46;;;;;;;;;13.25;13.25;;;;;;;;3731660;38;21094;-66
2021/06/18 01:26:44;;;;;;;;;11.25;11.25;;;;;;;;3726094;37;21045;-67
2021/06/18 01:29:10;;;;;;;;;14.50;14.50;;;;;;;;3725530;37;21049;-68
2021/06/18 01:31:39;;;;;;;;;17.75;16.75;;;;;;;;3725273;38;21002;-67
2021/06/18 01:34:11;;;;;;;;;15.00;15.00;;;;;;;;3725363;37;20961;-68
2021/06/18 01:36:38;;;;;;;;;16.25;16.25;;;;;;;;3725106;37;21032;-68
2021/06/18 01:39:05;;;;;;;;;16.00;16.00;;;;;;;;3725182;37;21046;-66
2021/06/18 01:41:52;;;;;;;;;13.25;13.25;;;;;;;;3725331;38;21040;-66
2021/06/18 01:44:19;;;;;;;;;12.00;12.00;;;;;;;;3725356;37;21051;-66
2021/06/18 01:46:46;;;;;;;;;15.50;15.50;;;;;;;;3725131;37;21003;-68
2021/06/18 01:49:14;;;;;;;;;15.25;14.75;;;;;;;;3725292;37;21032;-69
2021/06/18 01:51:41;;;;;;;;;13.00;13.00;;;;;;;;3724541;37;21044;-69
2021/06/18 01:54:09;;;;;;;;;8.75;8.75;;;;;;;;3725370;38;21015;-68
2021/06/18 01:56:36;;;;;;;;;15.00;15.00;;;;;;;;3725064;38;20992;-69
2021/06/18 01:59:04;;;;;;;;;15.00;15.00;;;;;;;;3724645;37;21035;-67
2021/06/18 02:01:35;;;;;;;;;15.50;15.50;;;;;;;;3724569;38;21013;-67
2021/06/18 02:04:03;;;;;;;;;15.00;15.00;;;;;;;;3724626;37;21021;-68
2021/06/18 02:06:32;;;;;;;;;12.25;12.25;;;;;;;;3725194;38;21027;-66
2021/06/18 02:09:02;;;;;;;;;14.00;14.00;;;;;;;;3724722;37;20967;-66
2021/06/18 02:11:30;;;;;;;;;13.75;13.75;;;;;;;;3725050;38;21005;-68
2021/06/18 02:13:58;;;;;;;;;15.50;15.50;;;;;;;;3724873;38;21012;-67
2021/06/18 02:16:25;;;;;;;;;15.25;15.00;;;;;;;;3724544;37;21058;-66
2021/06/18 02:18:53;;;;;;;;;15.75;15.75;;;;;;;;3724944;38;21011;-67
2021/06/18 02:21:19;;;;;;;;;13.75;13.75;;;;;;;;3724867;38;21005;-66
2021/06/18 02:23:46;;;;;;;;;15.25;14.75;;;;;;;;3724954;38;20990;-66
2021/06/18 02:26:12;;;;;;;;;15.75;15.75;;;;;;;;3725066;38;20971;-66
2021/06/18 02:28:38;;;;;;;;;15.75;15.75;;;;;;;;3724767;38;20962;-66
2021/06/18 02:31:05;;;;;;;;;16.00;14.00;;;;;;;;3724769;38;20965;-67
2021/06/18 02:33:33;;;;;;;;;16.25;16.25;;;;;;;;3724746;37;18139;-66
2021/06/18 02:35:59;;;;;;;;;14.25;14.25;;;;;;;;3724672;37;20991;-66
2021/06/18 02:38:25;;;;;;;;;13.25;13.25;;;;;;;;3725138;37;20958;-66
2021/06/18 02:40:52;;;;;;;;;15.50;15.50;;;;;;;;3726529;37;20971;-66
2021/06/18 02:43:19;;;;;;;;;16.00;16.00;;;;;;;;3727256;37;20963;-66
2021/06/18 02:45:45;;;;;;;;;13.00;13.00;;;;;;;;3724825;38;20955;-66
2021/06/18 02:48:36;;;;;;;;;16.25;16.25;;;;;;;;3725241;37;20926;-66
2021/06/18 02:51:35;;;;;;;;;18.00;18.00;;;;;;;;3724826;38;20950;-66
2021/06/18 02:54:21;;;;;;;;;17.00;16.50;;;;;;;;3725129;37;20896;-66
2021/06/18 02:56:51;;;;;;;;;15.75;15.75;;;;;;;;3725215;38;20960;-66
2021/06/18 02:59:26;;;;;;;;;15.75;15.75;;;;;;;;3724975;38;20948;-66
2021/06/18 03:01:53;;;;;;;;;13.25;13.00;;;;;;;;3724971;37;20857;-68
2021/06/18 03:04:23;;;;;;;;;11.00;11.00;;;;;;;;3725137;38;20920;-66
2021/06/18 03:06:51;;;;;;;;;16.75;16.50;;;;;;;;3725087;38;20925;-68
2021/06/18 03:09:20;;;;;;;;;14.00;14.00;;;;;;;;3724276;38;20919;-67
2021/06/18 03:11:51;;;;;;;;;15.75;15.75;;;;;;;;3725105;38;20902;-67
2021/06/18 03:14:19;;;;;;;;;18.25;18.25;;;;;;;;3724075;38;20922;-67
2021/06/18 03:17:03;;;;;;;;;19.00;17.25;;;;;;;;3725097;38;20924;-66
2021/06/18 03:19:33;;;;;;;;;15.50;15.50;;;;;;;;3724364;37;20927;-66
2021/06/18 03:22:01;;;;;;;;;18.25;18.25;;;;;;;;3724395;38;20963;-66
2021/06/18 03:24:31;;;;;;;;;19.75;19.00;;;;;;;;3724677;37;20902;-66
2021/06/18 03:26:57;;;;;;;;;19.00;18.25;;;;;;;;3724480;37;20816;-66
2021/06/18 03:29:25;;;;;;;;;18.25;18.25;;;;;;;;3724845;38;20832;-66
2021/06/18 03:31:58;;;;;;;;;17.50;17.50;;;;;;;;3724585;37;20793;-66
2021/06/18 03:34:25;;;;;;;;;15.50;14.75;;;;;;;;3724501;38;20795;-66
2021/06/18 03:36:57;;;;;;;;;19.75;19.75;;;;;;;;3724390;37;20801;-66
2021/06/18 03:39:23;;;;;;;;;18.25;18.25;;;;;;;;3725048;37;20802;-66
2021/06/18 03:41:49;;;;;;;;;18.50;18.50;;;;;;;;3725082;37;20810;-65
2021/06/18 03:44:15;;;;;;;;;18.50;18.00;;;;;;;;3725029;37;20802;-65
2021/06/18 03:46:46;;;;;;;;;18.00;18.00;;;;;;;;3736572;38;20798;-65
2021/06/18 03:49:32;;;;;;;;;18.00;18.00;;;;;;;;3741482;37;20853;-67
2021/06/18 03:52:00;;;;;;;;;15.00;15.00;;;;;;;;3741924;37;20797;-66
2021/06/18 03:54:32;;;;;;;;;15.75;15.75;;;;;;;;3734693;38;20863;-65
2021/06/18 03:56:59;;;;;;;;;17.00;16.25;;;;;;;;3725325;37;20846;-66
2021/06/18 03:59:27;;;;;;;;;15.50;15.50;;;;;;;;3725477;38;20855;-64
2021/06/18 04:01:55;;;;;;;;;16.25;16.00;;;;;;;;3725110;37;20842;-64
2021/06/18 04:04:22;;;;;;;;;18.00;16.25;;;;;;;;3725113;37;20823;-66
2021/06/18 04:06:48;;;;;;;;;17.75;17.75;;;;;;;;3725571;37;20826;-65
2021/06/18 04:09:20;;;;;;;;;18.75;18.75;;;;;;;;3725283;38;20731;-65
2021/06/18 04:11:46;;;;;;;;;17.25;17.25;;;;;;;;3725426;38;20759;-65
2021/06/18 04:14:14;;;;;;;;;20.50;19.50;;;;;;;;3724793;37;20732;-65
2021/06/18 04:16:40;;;;;;;;;15.50;15.50;;;;;;;;3724541;38;20759;-65
2021/06/18 04:19:10;;;;;;;;;17.00;17.00;;;;;;;;3725159;38;20709;-66
2021/06/18 04:21:43;;;;;;;;;18.50;17.00;;;;;;;;3725231;37;17985;-65
2021/06/18 04:24:13;;;;;;;;;16.25;16.25;;;;;;;;3724929;38;20702;-66
2021/06/18 04:26:40;;;;;;;;;17.00;17.00;;;;;;;;3725213;37;20724;-66
2021/06/18 04:29:13;;;;;;;;;19.25;18.75;;;;;;;;3725164;37;20792;-66
2021/06/18 04:31:40;;;;;;;;;20.25;20.25;;;;;;;;3725178;37;20707;-66
2021/06/18 04:34:12;;;;;;;;;15.50;15.50;;;;;;;;3725043;38;20735;-65
2021/06/18 04:36:39;;;;;;;;;16.50;16.50;;;;;;;;3725283;37;17956;-66
2021/06/18 04:39:06;;;;;;;;;19.25;19.00;;;;;;;;3725377;37;20784;-65
2021/06/18 04:41:32;;;;;;;;;16.25;16.25;;;;;;;;3724946;37;20672;-65
2021/06/18 04:43:58;;;;;;;;;17.75;17.00;;;;;;;;3725307;38;20703;-65
2021/06/18 04:46:25;;;;;;;;;17.00;17.00;;;;;;;;3725041;37;20704;-65
2021/06/18 04:48:51;;;;;;;;;15.75;15.75;;;;;;;;3725070;37;20697;-67
2021/06/18 04:51:19;;;;;;;;;18.75;18.75;;;;;;;;3725206;37;20764;-65
2021/06/18 04:53:47;;;;;;;;;19.25;19.25;;;;;;;;3724874;37;20695;-66
2021/06/18 04:56:14;;;;;;;;;24.25;23.50;;;;;;;;3725050;38;20670;-67
2021/06/18 04:58:41;;;;;;;;;20.00;20.00;;;;;;;;3724541;38;20664;-67
2021/06/18 05:01:07;;;;;;;;;33.00;31.75;;;;;;;;3725218;38;20625;-67
2021/06/18 05:03:34;;;;;;;;;32.00;31.00;;;;;;;;3725361;38;20667;-67
2021/06/18 05:06:01;;;;;;;;;25.25;25.00;;;;;;;;3724834;37;20650;-66
2021/06/18 05:08:27;;;;;;;;;22.25;21.75;;;;;;;;3725057;38;20628;-67
2021/06/18 05:10:53;;;;;;;;;20.75;20.75;;;;;;;;3725431;38;20673;-69
2021/06/18 05:13:20;;;;;;;;;20.50;19.75;;;;;;;;3725026;38;20664;-67
2021/06/18 05:15:50;;;;;;;;;18.75;18.25;;;;;;;;3725029;37;17920;-66
2021/06/18 05:18:16;;;;;;;;;21.50;20.00;;;;;;;;3725337;38;20670;-66
2021/06/18 05:20:42;;;;;;;;;17.00;17.00;;;;;;;;3725306;37;17918;-67
2021/06/18 05:23:09;;;;;;;;;14.25;14.25;;;;;;;;3727976;38;17912;-65
2021/06/18 05:25:41;;;;;;;;;15.25;15.25;;;;;;;;3726870;38;20755;-68
2021/06/18 05:28:08;;;;;;;;;16.75;16.75;;;;;;;;3725529;38;20706;-65
2021/06/18 05:30:40;;;;;;;;;14.50;14.50;;;;;;;;3724835;38;20737;-64
2021/06/18 05:33:06;;;;;;;;;13.75;13.75;;;;;;;;3724880;37;21040;-65
2021/06/18 05:35:32;;;;;;;;;15.00;14.50;;;;;;;;3724963;38;20709;-64
2021/06/18 05:37:58;;;;;;;;;14.75;14.00;;;;;;;;3724582;37;20721;-66
2021/06/18 05:40:24;;;;;;;;;13.25;13.25;;;;;;;;3724996;38;17888;-67
2021/06/18 05:42:49;;;;;;;;;12.00;12.00;;;;;;;;3724784;38;20729;-66
2021/06/18 05:45:15;;;;;;;;;13.25;13.25;;;;;;;;3724774;38;17880;-66
2021/06/18 05:47:41;;;;;;;;;12.50;12.50;;;;;;;;3724736;37;17845;-65
2021/06/18 05:50:08;;;;;;;;;5.25;5.25;;;;;;;;3724917;37;17884;-65
2021/06/18 05:52:36;;;;;;;;;10.75;10.75;;;;;;;;3724449;38;18134;-66
2021/06/18 05:55:02;;;;;;;;;15.25;14.25;;;;;;;;3724869;38;20674;-64
2021/06/18 05:57:28;;;;;;;;;13.00;13.00;;;;;;;;3724448;38;20666;-63
2021/06/18 05:59:54;;;;;;;;;13.75;13.75;;;;;;;;3724199;38;20681;-64
2021/06/18 06:02:20;;;;;;;;;10.75;10.25;;;;;;;;3724495;38;20691;-67
2021/06/18 06:04:49;;;;;;;;;14.50;14.00;;;;;;;;3724563;37;17855;-66
2021/06/18 06:07:14;;;;;;;;;13.75;13.00;;;;;;;;3724564;37;17835;-65
2021/06/18 06:09:41;;;;;;;;;12.00;11.25;;;;;;;;3724754;37;20707;-65
2021/06/18 06:12:07;;;;;;;;;13.00;12.75;;;;;;;;3725077;37;20670;-67
2021/06/18 06:14:34;;;;;;;;;16.00;13.50;;;;;;;;3724762;37;20651;-69
2021/06/18 06:17:03;;;;;;;;;13.25;13.00;;;;;;;;3724857;37;20670;-66
2021/06/18 06:19:29;;;;;;;;;14.75;14.75;;;;;;;;3724971;37;20648;-65
2021/06/18 06:21:56;;;;;;;;;15.00;13.50;;;;;;;;3724698;37;20642;-66
2021/06/18 06:24:22;;;;;;;;;15.75;15.75;;;;;;;;3724604;37;17810;-66
2021/06/18 06:26:48;;;;;;;;;13.25;13.25;;;;;;;;3725007;38;20651;-67
2021/06/18 06:29:15;;;;;;;;;14.00;14.00;;;;;;;;3724991;37;20642;-66
2021/06/18 06:31:44;;;;;;;;;12.75;12.50;;;;;;;;3724827;38;20633;-66
2021/06/18 06:34:12;;;;;;;;;13.75;13.75;;;;;;;;3724829;38;20659;-67
2021/06/18 06:36:38;;;;;;;;;0.25;0.25;;;;;;;;3725233;37;20645;-65
2021/06/18 06:39:05;;;;;;;;;13.25;13.25;;;;;;;;3724778;37;20482;-68
2021/06/18 06:41:38;;;;;;;;;12.75;12.75;;;;;;;;3724578;37;17770;-65
2021/06/18 06:44:05;;;;;;;;;14.50;13.50;;;;;;;;3724958;38;20611;-65
2021/06/18 06:46:31;;;;;;;;;14.00;14.00;;;;;;;;3725212;38;17785;-65
2021/06/18 06:48:57;;;;;;;;;12.75;12.75;;;;;;;;3724703;37;20624;-65
2021/06/18 06:51:23;;;;;;;;;16.25;15.75;;;;;;;;3724841;38;20627;-64
2021/06/18 06:53:54;;;;;;;;;12.00;12.00;;;;;;;;3724929;38;17778;-64
2021/06/18 06:56:21;;;;;;;;;16.50;16.00;;;;;;;;3724707;38;17793;-65
2021/06/18 06:58:47;;;;;;;;;13.25;13.00;;;;;;;;3724546;37;20606;-66
2021/06/18 07:01:13;;;;;;;;;12.00;12.00;;;;;;;;3724914;37;20590;-65
2021/06/18 07:03:40;;;;;;;;;15.25;13.00;;;;;;;;3724904;37;20607;-64
2021/06/18 07:06:08;;;;;;;;;13.75;13.75;;;;;;;;3724888;37;20593;-64
2021/06/18 07:08:34;;;;;;;;;11.00;11.00;;;;;;;;3724827;37;20604;-63
2021/06/18 07:11:00;;;;;;;;;11.50;11.50;;;;;;;;3724467;38;20593;-65
2021/06/18 07:13:27;;;;;;;;;13.75;13.75;;;;;;;;3724782;38;20580;-63
2021/06/18 07:15:53;;;;;;;;;15.25;15.25;;;;;;;;3724831;37;17756;-64
2021/06/18 07:18:20;;;;;;;;;13.50;12.75;;;;;;;;3724805;37;20590;-65
2021/06/18 07:20:51;;;;;;;;;11.00;11.00;;;;;;;;3724661;38;20554;-63
2021/06/18 07:23:17;;;;;;;;;12.25;12.25;;;;;;;;3724338;37;20568;-64
2021/06/18 07:25:45;;;;;;;;;13.00;13.00;;;;;;;;3724855;38;20583;-64
2021/06/18 07:28:12;;;;;;;;;13.75;12.75;;;;;;;;3724748;37;17749;-65
2021/06/18 07:30:39;;;;;;;;;14.75;14.75;;;;;;;;3724444;37;20576;-64
2021/06/18 07:33:06;;;;;;;;;12.25;12.25;;;;;;;;3724761;37;20558;-66
2021/06/18 07:35:32;;;;;;;;;12.25;12.25;;;;;;;;3724780;38;20553;-65
2021/06/18 07:37:58;;;;;;;;;12.00;12.00;;;;;;;;3724780;38;20547;-62
2021/06/18 07:40:24;;;;;;;;;15.00;14.00;;;;;;;;3724826;38;20541;-63
2021/06/18 07:42:50;;;;;;;;;13.00;13.00;;;;;;;;3724990;37;17699;-62
2021/06/18 07:45:17;;;;;;;;;12.00;11.75;;;;;;;;3725339;37;20542;-64
2021/06/18 07:47:43;;;;;;;;;14.50;14.50;;;;;;;;3724892;38;17697;-62
2021/06/18 07:50:13;;;;;;;;;14.50;14.50;;;;;;;;3724691;37;20539;-63
2021/06/18 07:52:41;;;;;;;;;13.50;12.75;;;;;;;;3724892;37;20536;-64
2021/06/18 07:55:09;;;;;;;;;11.75;11.50;;;;;;;;3724387;38;20528;-65
2021/06/18 07:57:36;;;;;;;;;12.50;12.00;;;;;;;;3724986;38;20524;-64
2021/06/18 08:00:06;;;;;;;;;11.50;11.50;;;;;;;;3724793;38;20514;-63
2021/06/18 08:02:32;;;;;;;;;9.75;9.75;;;;;;;;3724937;37;20508;-65
2021/06/18 08:05:01;;;;;;;;;11.75;11.75;;;;;;;;3726469;37;20464;-64
2021/06/18 08:07:27;;;;;;;;;11.75;11.50;;;;;;;;3726309;38;20528;-63
2021/06/18 08:09:53;;;;;;;;;13.25;12.50;;;;;;;;3724851;38;20475;-64
2021/06/18 08:12:21;;;;;;;;;13.00;13.00;;;;;;;;3724570;38;17688;-64
2021/06/18 08:14:47;;;;;;;;;14.50;13.25;;;;;;;;3724740;38;20499;-65
2021/06/18 08:17:13;;;;;;;;;12.00;11.75;;;;;;;;3724459;37;20490;-65
2021/06/18 08:19:39;;;;;;;;;11.75;11.75;;;;;;;;3724568;38;20489;-65
2021/06/18 08:22:06;;;;;;;;;13.75;13.25;;;;;;;;3724720;38;20491;-67
2021/06/18 08:24:33;;;;;;;;;11.00;11.00;;;;;;;;3724578;37;20486;-65
2021/06/18 08:26:59;;;;;;;;;12.00;12.00;;;;;;;;3724720;37;17671;-63
2021/06/18 08:29:26;;;;;;;;;11.25;11.25;;;;;;;;3724157;37;20462;-63
2021/06/18 08:31:53;;;;;;;;;13.25;13.25;;;;;;;;3724795;38;17631;-64
2021/06/18 08:34:19;;;;;;;;;13.00;13.00;;;;;;;;3724681;37;20461;-64
2021/06/18 08:36:46;;;;;;;;;14.00;14.00;;;;;;;;3724779;38;20467;-62
2021/06/18 08:39:12;;;;;;;;;13.00;13.00;;;;;;;;3724954;38;17646;-63
2021/06/18 08:41:39;;;;;;;;;10.25;10.00;;;;;;;;3725035;38;20489;-62
2021/06/18 08:44:06;;;;;;;;;13.00;13.00;;;;;;;;3724342;37;21423;-65
2021/06/18 08:46:33;;;;;;;;;9.75;9.75;;;;;;;;3724745;38;20479;-65
2021/06/18 08:48:58;;;;;;;;;10.50;10.50;;;;;;;;3724174;38;20448;-62
2021/06/18 08:51:25;;;;;;;;;12.00;12.00;;;;;;;;3724921;37;21445;-62
2021/06/18 08:53:52;;;;;;;;;12.00;12.00;;;;;;;;3725016;37;20453;-64
2021/06/18 08:56:18;;;;;;;;;12.00;12.00;;;;;;;;3724917;37;17633;-63
2021/06/18 08:58:45;;;;;;;;;9.50;9.50;;;;;;;;3724736;37;21420;-63
2021/06/18 09:01:11;;;;;;;;;12.50;12.50;;;;;;;;3724616;37;21345;-63
2021/06/18 09:03:42;;;;;;;;;13.00;13.00;;;;;;;;3724883;38;21444;-63
2021/06/18 09:06:26;;;;;;;;;12.00;11.25;;;;;;;;3725060;37;21447;-63
2021/06/18 09:09:21;;;;;;;;;12.00;12.00;;;;;;;;3724995;38;21460;-62
2021/06/18 09:11:56;;;;;;;;;12.00;12.00;;;;;;;;3725021;38;21463;-64
2021/06/18 09:14:33;;;;;;;;;11.25;10.50;;;;;;;;3724504;37;21411;-66
2021/06/18 09:17:27;;;;;;;;;11.00;11.00;;;;;;;;3724469;37;21263;-64
2021/06/18 09:20:04;;;;;;;;;13.00;12.25;;;;;;;;3724944;38;21418;-64
2021/06/18 09:22:41;;;;;;;;;12.75;11.50;;;;;;;;3724948;37;21516;-64
2021/06/18 09:25:16;;;;;;;;;11.25;11.25;;;;;;;;3724482;38;21391;-63
2021/06/18 09:27:49;;;;;;;;;10.75;10.25;;;;;;;;3724887;38;21399;-63
2021/06/18 09:30:36;;;;;;;;;12.25;12.25;;;;;;;;3725241;37;21419;-64
2021/06/18 09:33:18;;;;;;;;;12.50;12.50;;;;;;;;3724958;37;21424;-64
2021/06/18 09:36:02;;;;;;;;;13.00;11.25;;;;;;;;3725022;38;21386;-63
2021/06/18 09:38:41;;;;;;;;;10.25;10.25;;;;;;;;3724792;38;21505;-64
2021/06/18 09:41:27;;;;;;;;;13.00;13.00;;;;;;;;3725076;37;21333;-63
2021/06/18 09:43:53;;;;;;;;;13.75;13.75;;;;;;;;3724830;38;21401;-62
2021/06/18 09:46:22;;;;;;;;;12.50;12.50;;;;;;;;3724881;38;21391;-62
2021/06/18 09:48:49;;;;;;;;;14.75;13.75;;;;;;;;3724907;38;18549;-63
2021/06/18 09:51:15;;;;;;;;;14.00;14.00;;;;;;;;3724958;38;21394;-64
2021/06/18 09:53:41;;;;;;;;;14.00;13.50;;;;;;;;3724815;37;21375;-63
2021/06/18 09:56:08;;;;;;;;;12.25;12.00;;;;;;;;3725127;38;21357;-64
2021/06/18 09:58:36;;;;;;;;;14.00;14.00;;;;;;;;3724272;38;18549;-64
2021/06/18 10:01:36;;;;;;;;;14.50;14.50;;;;;;;;3724683;38;21372;-65
2021/06/18 10:04:12;;;;;;;;;13.00;13.00;;;;;;;;3724692;38;21659;-62
2021/06/18 10:06:40;;;;;;;;;14.75;14.75;;;;;;;;3724877;37;21369;-64
2021/06/18 10:09:09;;;;;;;;;12.75;12.75;;;;;;;;3724699;38;21381;-62
2021/06/18 10:11:35;;;;;;;;;15.25;15.25;;;;;;;;3724605;38;21426;-62
2021/06/18 10:14:01;;;;;;;;;16.00;15.50;;;;;;;;3724890;37;21372;-62
2021/06/18 10:16:27;;;;;;;;;19.00;18.00;;;;;;;;3724878;37;21344;-65
2021/06/18 10:18:57;;;;;;;;;15.00;14.25;;;;;;;;3724715;37;21256;-63
2021/06/18 10:21:24;;;;;;;;;17.00;17.00;;;;;;;;3724863;38;21345;-65
2021/06/18 10:23:54;;;;;;;;;15.00;14.00;;;;;;;;3724653;37;21441;-62
2021/06/18 10:26:23;;;;;;;;;9.50;9.50;;;;;;;;3724809;37;21349;-64
2021/06/18 10:28:53;;;;;;;;;67.00;57.75;;;;;;;;3724691;37;21208;-63
2021/06/18 10:31:35;;;;;;;;;49.00;41.75;;;;;;;;3724809;37;18508;-65
2021/06/18 10:34:08;;;;;;;;;12.50;12.50;;;;;;;;3724731;38;21245;-63
2021/06/18 10:36:42;;;;;;;;;42.00;37.00;;;;;;;;3724951;37;21307;-62
2021/06/18 10:39:12;;;;;;;;;14.25;14.25;;;;;;;;3724779;38;21287;-61
2021/06/18 10:41:45;;;;;;;;;13.00;13.00;;;;;;;;3724938;37;21289;-64
2021/06/18 10:44:13;;;;;;;;;10.25;10.25;;;;;;;;3724699;38;21339;-64
2021/06/18 10:46:42;;;;;;;;;10.75;10.75;;;;;;;;3724734;38;21378;-64
2021/06/18 10:49:09;;;;;;;;;10.75;9.75;;;;;;;;3726599;38;21291;-62
2021/06/18 10:51:58;;;;;;;;;10.00;10.00;;;;;;;;3725013;38;21252;-63
2021/06/18 10:54:44;;;;;;;;;12.00;11.00;;;;;;;;3724870;38;21232;-63
2021/06/18 10:57:14;;;;;;;;;10.00;10.00;;;;;;;;3724804;37;21328;-63
2021/06/18 10:59:46;;;;;;;;;11.00;11.00;;;;;;;;3724740;38;21297;-66
2021/06/18 11:02:41;;;;;;;;;12.00;12.00;;;;;;;;3724625;37;21293;-66
2021/06/18 11:05:08;;;;;;;;;11.25;11.25;;;;;;;;3724777;37;21303;-64
2021/06/18 11:07:36;;;;;;;;;9.25;9.25;;;;;;;;3724946;37;21249;-64
2021/06/18 11:10:16;;;;;;;;;11.25;11.00;;;;;;;;3724669;37;21260;-65
2021/06/18 11:12:43;;;;;;;;;11.50;11.50;;;;;;;;3724583;37;21350;-62
2021/06/18 11:15:31;;;;;;;;;12.50;12.50;;;;;;;;3725190;37;21271;-64
2021/06/18 11:18:19;;;;;;;;;14.00;13.25;;;;;;;;3724906;37;21282;-66
2021/06/18 11:20:50;;;;;;;;;11.00;11.00;;;;;;;;3724852;38;21292;-64
2021/06/18 11:23:24;;;;;;;;;10.50;10.50;;;;;;;;3725293;38;21240;-63
2021/06/18 11:26:18;;;;;;;;;13.25;12.00;;;;;;;;3724912;37;21252;-66
2021/06/18 11:28:46;;;;;;;;;13.00;12.25;;;;;;;;3725012;38;21268;-64
2021/06/18 11:31:16;;;;;;;;;14.75;13.00;;;;;;;;3724363;38;21259;-64
2021/06/18 11:34:02;;;;;;;;;12.00;12.00;;;;;;;;3724728;38;21248;-63
2021/06/18 11:36:47;;;;;;;;;12.00;11.00;;;;;;;;3725045;37;21288;-65
2021/06/18 11:39:18;;;;;;;;;11.50;11.50;;;;;;;;3724813;37;21262;-64
2021/06/18 11:41:49;;;;;;;;;11.25;10.75;;;;;;;;3725011;38;21248;-63
2021/06/18 11:44:21;;;;;;;;;11.00;11.00;;;;;;;;3725172;38;21230;-63
2021/06/18 11:46:51;;;;;;;;;11.00;11.00;;;;;;;;3725006;37;21211;-63
2021/06/18 11:49:29;;;;;;;;;13.25;13.25;;;;;;;;3723824;37;21234;-65
2021/06/18 11:51:59;;;;;;;;;11.00;11.00;;;;;;;;3724179;38;21247;-63
2021/06/18 11:54:30;;;;;;;;;12.00;12.00;;;;;;;;3724689;37;21227;-64
2021/06/18 11:57:00;;;;;;;;;14.00;13.00;;;;;;;;3724879;38;21233;-63
2021/06/18 11:59:26;;;;;;;;;11.25;11.25;;;;;;;;3724710;38;21232;-63
2021/06/18 12:01:53;;;;;;;;;8.75;7.00;;;;;;;;3724658;37;21228;-63
2021/06/18 12:04:20;;;;;;;;;7.00;7.00;;;;;;;;3724175;37;21126;-62
2021/06/18 12:06:51;;;;;;;;;4.00;3.25;;;;;;;;3724754;38;18370;-63
2021/06/18 12:09:22;;;;;;;;;6.00;6.00;;;;;;;;3724561;37;21120;-64
2021/06/18 12:11:58;;;;;;;;;5.00;5.00;;;;;;;;3724607;38;21158;-61
2021/06/18 12:14:24;;;;;;;;;6.75;6.75;;;;;;;;3724878;37;21137;-64
2021/06/18 12:16:56;;;;;;;;;7.00;7.00;;;;;;;;3724859;37;21117;-62
2021/06/18 12:19:23;;;;;;;;;11.00;10.50;;;;;;;;3724912;37;21122;-64
2021/06/18 12:21:56;;;;;;;;;10.75;10.75;;;;;;;;3724835;38;21159;-63
2021/06/18 12:24:26;;;;;;;;;14.00;14.00;;;;;;;;3724753;38;21149;-63
2021/06/18 12:26:52;;;;;;;;;12.00;12.00;;;;;;;;3724593;38;21169;-62
2021/06/18 12:29:18;;;;;;;;;14.00;14.00;;;;;;;;3724756;38;21186;-63
2021/06/18 12:31:44;;;;;;;;;12.75;11.50;;;;;;;;3725104;38;21194;-63
2021/06/18 12:34:10;;;;;;;;;13.25;13.25;;;;;;;;3724756;38;18351;-64
2021/06/18 12:36:37;;;;;;;;;12.00;12.00;;;;;;;;3724877;37;21193;-62
2021/06/18 12:39:14;;;;;;;;;13.25;13.25;;;;;;;;3732076;37;21180;-62
2021/06/18 12:41:41;;;;;;;;;11.75;11.50;;;;;;;;3732753;37;21157;-63
2021/06/18 12:44:08;;;;;;;;;11.50;11.50;;;;;;;;3734894;37;21150;-64
2021/06/18 12:46:35;;;;;;;;;12.25;12.00;;;;;;;;3728924;37;21180;-64
2021/06/18 12:49:07;;;;;;;;;11.00;10.00;;;;;;;;3724914;38;21134;-63
2021/06/18 12:51:34;;;;;;;;;14.00;14.00;;;;;;;;3725029;37;21132;-62
2021/06/18 12:54:08;;;;;;;;;11.75;11.75;;;;;;;;3726753;37;21129;-63
2021/06/18 12:56:43;;;;;;;;;13.00;12.00;;;;;;;;3728880;37;21145;-63
2021/06/18 12:59:13;;;;;;;;;12.00;12.00;;;;;;;;3724987;38;21123;-62
2021/06/18 13:01:39;;;;;;;;;13.00;13.00;;;;;;;;3724476;37;21129;-64
2021/06/18 13:04:07;;;;;;;;;14.25;14.25;;;;;;;;3724640;37;21126;-63
2021/06/18 13:06:40;;;;;;;;;15.00;14.50;;;;;;;;3724916;38;21144;-62
2021/06/18 13:09:06;;;;;;;;;12.50;12.50;;;;;;;;3724901;38;21137;-64
2021/06/18 13:11:45;;;;;;;;;13.00;13.00;;;;;;;;3725397;38;21109;-64
2021/06/18 13:14:29;;;;;;;;;12.25;12.25;;;;;;;;3724723;38;21112;-63
2021/06/18 13:17:06;;;;;;;;;14.75;14.75;;;;;;;;3724967;37;21147;-64
2021/06/18 13:19:59;;;;;;;;;14.25;14.25;;;;;;;;3724891;38;21125;-63
2021/06/18 13:22:35;;;;;;;;;15.00;15.00;;;;;;;;3724826;38;21134;-64
2021/06/18 13:25:12;;;;;;;;;16.00;16.00;;;;;;;;3724820;38;21098;-63
2021/06/18 13:27:45;;;;;;;;;18.75;18.75;;;;;;;;3724871;37;21112;-63
2021/06/18 13:30:13;;;;;;;;;16.50;16.25;;;;;;;;3727184;37;21320;-64
2021/06/18 13:32:47;;;;;;;;;15.00;15.00;;;;;;;;3724497;38;21097;-63
2021/06/18 13:35:14;;;;;;;;;18.50;18.50;;;;;;;;3724479;37;21099;-63
2021/06/18 13:37:43;;;;;;;;;15.25;15.25;;;;;;;;3724663;37;21116;-64
2021/06/18 13:40:30;;;;;;;;;16.25;16.00;;;;;;;;3724717;37;21087;-64
2021/06/18 13:42:56;;;;;;;;;12.75;12.75;;;;;;;;3724754;37;21106;-63
2021/06/18 13:45:22;;;;;;;;;12.25;12.25;;;;;;;;3724328;37;21092;-63
2021/06/18 13:47:49;;;;;;;;;9.25;9.25;;;;;;;;3724956;37;18239;-63
2021/06/18 13:50:16;;;;;;;;;12.25;11.75;;;;;;;;3724912;38;21065;-63
2021/06/18 13:52:45;;;;;;;;;11.25;11.25;;;;;;;;3724636;38;21059;-63
2021/06/18 13:55:11;;;;;;;;;14.00;14.00;;;;;;;;3724494;37;21038;-63
2021/06/18 13:57:37;;;;;;;;;15.75;15.00;;;;;;;;3724931;37;21087;-62
2021/06/18 14:00:05;;;;;;;;;14.50;14.25;;;;;;;;3724901;37;21061;-63
2021/06/18 14:02:31;;;;;;;;;16.75;16.75;;;;;;;;3724651;38;21074;-63
2021/06/18 14:04:57;;;;;;;;;12.25;12.25;;;;;;;;3725110;37;20876;-63
2021/06/18 14:07:25;;;;;;;;;13.50;13.50;;;;;;;;3724858;37;21085;-63
2021/06/18 14:09:51;;;;;;;;;17.75;17.75;;;;;;;;3724667;37;21038;-63
2021/06/18 14:12:17;;;;;;;;;18.25;17.75;;;;;;;;3724361;38;21048;-64
2021/06/18 14:14:48;;;;;;;;;15.50;15.00;;;;;;;;3724503;37;18194;-64
2021/06/18 14:17:19;;;;;;;;;16.00;16.00;;;;;;;;3724286;37;21034;-65
2021/06/18 14:19:46;;;;;;;;;13.25;13.25;;;;;;;;3724967;37;21037;-63
2021/06/18 14:22:12;;;;;;;;;14.50;13.50;;;;;;;;3724870;37;21031;-65
2021/06/18 14:24:38;;;;;;;;;15.75;15.75;;;;;;;;3724478;37;21005;-62
2021/06/18 14:27:06;;;;;;;;;15.00;14.00;;;;;;;;3724670;38;21067;-64
2021/06/18 14:29:32;;;;;;;;;14.50;14.50;;;;;;;;3724854;38;21010;-64
2021/06/18 14:31:58;;;;;;;;;15.00;15.00;;;;;;;;3724739;37;21022;-64
2021/06/18 14:34:25;;;;;;;;;14.25;14.25;;;;;;;;3724688;37;18155;-63